<?xml version='1.0' encoding='UTF-8'?><gpx version="1.1" creator="JPX - https://github.com/jenetics/jpx" xmlns="http://www.topografix.com/GPX/1/1"><trk><trkseg><trkpt lat="43.4766804" lon="11.1178401"><ele>100.99999999999999</ele><time>2026-05-02T13:28:29.081Z</time></trkpt><trkpt lat="43.476564" lon="11.1178887"><ele>101.0</ele><time>2026-05-02T13:28:31.081Z</time></trkpt><trkpt lat="43.476502" lon="11.1179124"><ele>101.0</ele><time>2026-05-02T13:28:32.082Z</time></trkpt><trkpt lat="43.4764375" lon="11.117948"><ele>101.0</ele><time>2026-05-02T13:28:33.08Z</time></trkpt><trkpt lat="43.4763649" lon="11.1179856"><ele>100.99999999999999</ele><time>2026-05-02T13:28:34.08Z</time></trkpt><trkpt lat="43.476287" lon="11.1180237"><ele>101.0</ele><time>2026-05-02T13:28:35.081Z</time></trkpt><trkpt lat="43.4762069" lon="11.1180617"><ele>101.66666666666666</ele><time>2026-05-02T13:28:36.082Z</time></trkpt><trkpt lat="43.476123" lon="11.1180977"><ele>102.33333333333333</ele><time>2026-05-02T13:28:37.081Z</time></trkpt><trkpt lat="43.4760407" lon="11.1181362"><ele>103.0</ele><time>2026-05-02T13:28:38.081Z</time></trkpt><trkpt lat="43.475972" lon="11.1181904"><ele>103.66666666666666</ele><time>2026-05-02T13:28:39.081Z</time></trkpt><trkpt lat="43.4759057" lon="11.1182575"><ele>104.33333333333333</ele><time>2026-05-02T13:28:40.082Z</time></trkpt><trkpt lat="43.4758423" lon="11.1183367"><ele>105.0</ele><time>2026-05-02T13:28:41.08Z</time></trkpt><trkpt lat="43.4757779" lon="11.1184401"><ele>106.0</ele><time>2026-05-02T13:28:42.08Z</time></trkpt><trkpt lat="43.475725" lon="11.1185811"><ele>107.0</ele><time>2026-05-02T13:28:43.08Z</time></trkpt><trkpt lat="43.4756745" lon="11.1187313"><ele>108.0</ele><time>2026-05-02T13:28:44.079Z</time></trkpt><trkpt lat="43.4756128" lon="11.1188768"><ele>109.0</ele><time>2026-05-02T13:28:45.081Z</time></trkpt><trkpt lat="43.4755306" lon="11.1189935"><ele>107.4</ele><time>2026-05-02T13:28:46.08Z</time></trkpt><trkpt lat="43.4754375" lon="11.1190895"><ele>105.80000000000001</ele><time>2026-05-02T13:28:47.079Z</time></trkpt><trkpt lat="43.4753401" lon="11.1191737"><ele>104.19999999999999</ele><time>2026-05-02T13:28:48.08Z</time></trkpt><trkpt lat="43.4752629" lon="11.1192524"><ele>102.6</ele><time>2026-05-02T13:28:49.08Z</time></trkpt><trkpt lat="43.4752144" lon="11.1193439"><ele>101.0</ele><time>2026-05-02T13:28:51.081Z</time></trkpt><trkpt lat="43.4752843" lon="11.1193155"><ele>100.99999999999999</ele><time>2026-05-02T13:28:57.08Z</time></trkpt><trkpt lat="43.4753423" lon="11.1192394"><ele>101.0</ele><time>2026-05-02T13:29:01.08Z</time></trkpt><trkpt lat="43.4754102" lon="11.1191767"><ele>101.0</ele><time>2026-05-02T13:29:03.08Z</time></trkpt><trkpt lat="43.4755017" lon="11.1190877"><ele>101.0</ele><time>2026-05-02T13:29:05.08Z</time></trkpt><trkpt lat="43.4755582" lon="11.1190281"><ele>100.99999999999999</ele><time>2026-05-02T13:29:06.08Z</time></trkpt><trkpt lat="43.4756142" lon="11.1189522"><ele>101.0</ele><time>2026-05-02T13:29:07.08Z</time></trkpt><trkpt lat="43.4756618" lon="11.1188616"><ele>102.6</ele><time>2026-05-02T13:29:08.079Z</time></trkpt><trkpt lat="43.4757053" lon="11.1187578"><ele>104.19999999999999</ele><time>2026-05-02T13:29:09.08Z</time></trkpt><trkpt lat="43.4757438" lon="11.118636"><ele>105.80000000000001</ele><time>2026-05-02T13:29:10.079Z</time></trkpt><trkpt lat="43.4757897" lon="11.1185073"><ele>107.4</ele><time>2026-05-02T13:29:11.08Z</time></trkpt><trkpt lat="43.4758462" lon="11.1183894"><ele>109.0</ele><time>2026-05-02T13:29:12.08Z</time></trkpt><trkpt lat="43.4759176" lon="11.1182876"><ele>108.2</ele><time>2026-05-02T13:29:13.079Z</time></trkpt><trkpt lat="43.4759994" lon="11.1182079"><ele>107.4</ele><time>2026-05-02T13:29:14.081Z</time></trkpt><trkpt lat="43.4760904" lon="11.1181494"><ele>106.6</ele><time>2026-05-02T13:29:15.08Z</time></trkpt><trkpt lat="43.4761863" lon="11.1180994"><ele>105.8</ele><time>2026-05-02T13:29:16.08Z</time></trkpt><trkpt lat="43.4762841" lon="11.1180547"><ele>105.0</ele><time>2026-05-02T13:29:17.08Z</time></trkpt><trkpt lat="43.4763823" lon="11.1180132"><ele>104.2</ele><time>2026-05-02T13:29:18.08Z</time></trkpt><trkpt lat="43.4764796" lon="11.1179774"><ele>103.4</ele><time>2026-05-02T13:29:19.081Z</time></trkpt><trkpt lat="43.4765749" lon="11.1179426"><ele>102.6</ele><time>2026-05-02T13:29:20.08Z</time></trkpt><trkpt lat="43.4766617" lon="11.1179208"><ele>101.8</ele><time>2026-05-02T13:29:21.08Z</time></trkpt><trkpt lat="43.4767375" lon="11.1179035"><ele>101.0</ele><time>2026-05-02T13:29:22.079Z</time></trkpt><trkpt lat="43.476843" lon="11.1178899"><ele>101.0</ele><time>2026-05-02T13:29:24.08Z</time></trkpt><trkpt lat="43.4769106" lon="11.1178737"><ele>101.0</ele><time>2026-05-02T13:29:26.079Z</time></trkpt></trkseg></trk></gpx>